sensor_id;sensor_type;location;lat;lon;timestamp;temperature;humidity
22526;DHT22;11429;50.842;4.386;2022-12-16T00:00:23;0.50;99.90
22526;DHT22;11429;50.842;4.386;2022-12-16T00:02:50;0.30;99.90
22526;DHT22;11429;50.842;4.386;2022-12-16T00:05:16;0.40;99.90
22526;DHT22;11429;50.842;4.386;2022-12-16T00:07:45;0.60;99.90
22526;DHT22;11429;50.842;4.386;2022-12-16T00:10:11;0.40;99.90
22526;DHT22;11429;50.842;4.386;2022-12-16T00:12:37;0.30;99.90
22526;DHT22;11429;50.842;4.386;2022-12-16T00:15:03;0.20;99.90
22526;DHT22;11429;50.842;4.386;2022-12-16T00:17:29;0.20;99.90
22526;DHT22;11429;50.842;4.386;2022-12-16T00:19:54;0.60;99.90
22526;DHT22;11429;50.842;4.386;2022-12-16T00:22:22;0.40;99.90
22526;DHT22;11429;50.842;4.386;2022-12-16T00:24:48;0.50;99.90
22526;DHT22;11429;50.842;4.386;2022-12-16T00:27:13;0.60;99.90
22526;DHT22;11429;50.842;4.386;2022-12-16T00:29:39;0.80;99.90
22526;DHT22;11429;50.842;4.386;2022-12-16T00:32:05;1.10;99.90
22526;DHT22;11429;50.842;4.386;2022-12-16T00:34:31;1.20;99.90
22526;DHT22;11429;50.842;4.386;2022-12-16T00:36:58;1.20;99.90
22526;DHT22;11429;50.842;4.386;2022-12-16T00:39:24;1.20;99.90
22526;DHT22;11429;50.842;4.386;2022-12-16T00:41:49;1.10;99.90
22526;DHT22;11429;50.842;4.386;2022-12-16T00:44:16;1.20;99.90
22526;DHT22;11429;50.842;4.386;2022-12-16T00:46:42;1.10;99.90
22526;DHT22;11429;50.842;4.386;2022-12-16T00:49:07;1.10;99.90
22526;DHT22;11429;50.842;4.386;2022-12-16T00:51:33;1.20;99.90
22526;DHT22;11429;50.842;4.386;2022-12-16T00:53:59;1.00;99.90
22526;DHT22;11429;50.842;4.386;2022-12-16T00:56:25;1.20;99.90
22526;DHT22;11429;50.842;4.386;2022-12-16T00:58:52;1.30;99.90
22526;DHT22;11429;50.842;4.386;2022-12-16T01:01:17;1.30;99.90
22526;DHT22;11429;50.842;4.386;2022-12-16T01:03:44;1.20;99.90
22526;DHT22;11429;50.842;4.386;2022-12-16T01:06:15;1.10;99.90
22526;DHT22;11429;50.842;4.386;2022-12-16T01:08:42;1.30;99.90
22526;DHT22;11429;50.842;4.386;2022-12-16T01:11:14;1.40;99.90
22526;DHT22;11429;50.842;4.386;2022-12-16T01:13:41;1.50;99.90
22526;DHT22;11429;50.842;4.386;2022-12-16T01:16:07;1.60;99.90
22526;DHT22;11429;50.842;4.386;2022-12-16T01:18:32;1.60;99.90
22526;DHT22;11429;50.842;4.386;2022-12-16T01:21:05;1.60;99.90
22526;DHT22;11429;50.842;4.386;2022-12-16T01:23:32;1.40;99.90
22526;DHT22;11429;50.842;4.386;2022-12-16T01:25:59;1.30;99.90
22526;DHT22;11429;50.842;4.386;2022-12-16T01:28:27;1.30;99.90
22526;DHT22;11429;50.842;4.386;2022-12-16T01:30:57;1.50;99.90
22526;DHT22;11429;50.842;4.386;2022-12-16T01:33:27;1.60;99.90
22526;DHT22;11429;50.842;4.386;2022-12-16T01:36:04;1.50;99.90
22526;DHT22;11429;50.842;4.386;2022-12-16T01:38:31;1.40;99.90
22526;DHT22;11429;50.842;4.386;2022-12-16T01:40:57;1.40;99.90
22526;DHT22;11429;50.842;4.386;2022-12-16T01:43:34;1.40;99.90
22526;DHT22;11429;50.842;4.386;2022-12-16T01:51:21;1.40;99.90
22526;DHT22;11429;50.842;4.386;2022-12-16T01:53:52;1.40;99.90
22526;DHT22;11429;50.842;4.386;2022-12-16T01:56:20;1.50;99.90
22526;DHT22;11429;50.842;4.386;2022-12-16T01:58:46;1.40;99.90
22526;DHT22;11429;50.842;4.386;2022-12-16T02:01:13;1.40;99.90
22526;DHT22;11429;50.842;4.386;2022-12-16T02:03:41;1.50;99.90
22526;DHT22;11429;50.842;4.386;2022-12-16T02:06:07;1.50;99.90
22526;DHT22;11429;50.842;4.386;2022-12-16T02:08:33;1.40;99.90
22526;DHT22;11429;50.842;4.386;2022-12-16T02:14:11;1.50;99.90
22526;DHT22;11429;50.842;4.386;2022-12-16T02:17:13;1.60;99.90
22526;DHT22;11429;50.842;4.386;2022-12-16T02:31:31;2.00;99.90
22526;DHT22;11429;50.842;4.386;2022-12-16T02:39:29;2.00;99.90
22526;DHT22;11429;50.842;4.386;2022-12-16T02:47:11;2.10;99.90
22526;DHT22;11429;50.842;4.386;2022-12-16T02:49:47;2.10;99.90
22526;DHT22;11429;50.842;4.386;2022-12-16T02:52:14;2.10;99.90
22526;DHT22;11429;50.842;4.386;2022-12-16T02:54:42;2.20;99.90
22526;DHT22;11429;50.842;4.386;2022-12-16T02:59:40;2.00;99.90
22526;DHT22;11429;50.842;4.386;2022-12-16T03:05:05;1.90;99.90
22526;DHT22;11429;50.842;4.386;2022-12-16T03:07:33;1.90;99.90
22526;DHT22;11429;50.842;4.386;2022-12-16T03:10:03;1.90;99.90
22526;DHT22;11429;50.842;4.386;2022-12-16T03:12:32;1.80;99.90
22526;DHT22;11429;50.842;4.386;2022-12-16T03:14:59;1.80;99.90
22526;DHT22;11429;50.842;4.386;2022-12-16T03:17:26;1.90;99.90
22526;DHT22;11429;50.842;4.386;2022-12-16T03:20:14;2.00;99.90
22526;DHT22;11429;50.842;4.386;2022-12-16T03:22:44;2.00;99.90
22526;DHT22;11429;50.842;4.386;2022-12-16T03:25:11;2.10;99.90
22526;DHT22;11429;50.842;4.386;2022-12-16T03:28:15;2.00;99.90
22526;DHT22;11429;50.842;4.386;2022-12-16T03:30:50;2.00;99.90
22526;DHT22;11429;50.842;4.386;2022-12-16T03:33:25;2.10;99.90
22526;DHT22;11429;50.842;4.386;2022-12-16T03:36:04;2.10;99.90
22526;DHT22;11429;50.842;4.386;2022-12-16T03:38:32;2.10;99.90
22526;DHT22;11429;50.842;4.386;2022-12-16T03:41:00;2.10;99.90
22526;DHT22;11429;50.842;4.386;2022-12-16T03:43:29;2.20;99.90
22526;DHT22;11429;50.842;4.386;2022-12-16T03:45:59;2.30;99.90
22526;DHT22;11429;50.842;4.386;2022-12-16T03:48:25;2.10;99.90
22526;DHT22;11429;50.842;4.386;2022-12-16T03:50:51;2.10;99.90
22526;DHT22;11429;50.842;4.386;2022-12-16T03:53:17;1.90;99.90
22526;DHT22;11429;50.842;4.386;2022-12-16T03:55:48;1.90;99.90
22526;DHT22;11429;50.842;4.386;2022-12-16T03:58:14;1.90;99.90
22526;DHT22;11429;50.842;4.386;2022-12-16T04:00:40;1.80;99.90
22526;DHT22;11429;50.842;4.386;2022-12-16T04:03:06;1.60;99.90
22526;DHT22;11429;50.842;4.386;2022-12-16T04:05:31;1.60;99.90
22526;DHT22;11429;50.842;4.386;2022-12-16T04:07:57;1.60;99.90
22526;DHT22;11429;50.842;4.386;2022-12-16T04:10:23;1.40;99.90
22526;DHT22;11429;50.842;4.386;2022-12-16T04:13:08;1.50;99.90
22526;DHT22;11429;50.842;4.386;2022-12-16T04:15:54;1.40;99.90
22526;DHT22;11429;50.842;4.386;2022-12-16T04:18:39;1.40;99.90
22526;DHT22;11429;50.842;4.386;2022-12-16T04:21:24;1.40;99.90
22526;DHT22;11429;50.842;4.386;2022-12-16T04:24:18;1.50;99.90
22526;DHT22;11429;50.842;4.386;2022-12-16T04:26:45;1.60;99.90
22526;DHT22;11429;50.842;4.386;2022-12-16T04:29:30;1.80;99.90
22526;DHT22;11429;50.842;4.386;2022-12-16T04:31:57;1.60;99.90
22526;DHT22;11429;50.842;4.386;2022-12-16T04:34:24;1.50;99.90
22526;DHT22;11429;50.842;4.386;2022-12-16T04:36:54;1.30;99.90
22526;DHT22;11429;50.842;4.386;2022-12-16T04:39:39;1.10;99.90
22526;DHT22;11429;50.842;4.386;2022-12-16T04:42:23;1.40;99.90
22526;DHT22;11429;50.842;4.386;2022-12-16T04:45:07;1.70;99.90
22526;DHT22;11429;50.842;4.386;2022-12-16T04:47:52;1.80;99.90
22526;DHT22;11429;50.842;4.386;2022-12-16T04:50:37;2.00;99.90
22526;DHT22;11429;50.842;4.386;2022-12-16T04:53:22;2.30;99.90
22526;DHT22;11429;50.842;4.386;2022-12-16T04:56:06;2.50;99.90
22526;DHT22;11429;50.842;4.386;2022-12-16T04:58:50;2.50;99.90
22526;DHT22;11429;50.842;4.386;2022-12-16T05:01:34;2.40;99.90
22526;DHT22;11429;50.842;4.386;2022-12-16T05:04:18;2.50;99.90
22526;DHT22;11429;50.842;4.386;2022-12-16T05:07:03;2.70;99.90
22526;DHT22;11429;50.842;4.386;2022-12-16T05:09:48;2.70;99.90
22526;DHT22;11429;50.842;4.386;2022-12-16T05:12:32;2.60;99.90
22526;DHT22;11429;50.842;4.386;2022-12-16T05:15:16;2.60;99.90
22526;DHT22;11429;50.842;4.386;2022-12-16T05:18:08;2.80;99.90
22526;DHT22;11429;50.842;4.386;2022-12-16T05:20:52;2.60;99.90
22526;DHT22;11429;50.842;4.386;2022-12-16T05:23:36;2.80;99.90
22526;DHT22;11429;50.842;4.386;2022-12-16T05:26:20;3.10;99.90
22526;DHT22;11429;50.842;4.386;2022-12-16T05:29:04;2.90;99.90
22526;DHT22;11429;50.842;4.386;2022-12-16T05:31:48;2.90;99.90
22526;DHT22;11429;50.842;4.386;2022-12-16T05:34:32;3.30;99.90
22526;DHT22;11429;50.842;4.386;2022-12-16T05:37:16;3.30;99.90
22526;DHT22;11429;50.842;4.386;2022-12-16T05:40:00;3.20;99.90
22526;DHT22;11429;50.842;4.386;2022-12-16T05:42:47;3.30;99.90
22526;DHT22;11429;50.842;4.386;2022-12-16T05:45:31;3.30;99.90
22526;DHT22;11429;50.842;4.386;2022-12-16T05:48:16;3.10;99.90
22526;DHT22;11429;50.842;4.386;2022-12-16T05:51:00;2.90;99.90
22526;DHT22;11429;50.842;4.386;2022-12-16T05:53:44;2.90;99.90
22526;DHT22;11429;50.842;4.386;2022-12-16T05:56:28;3.00;99.90
22526;DHT22;11429;50.842;4.386;2022-12-16T05:59:12;3.00;99.90
22526;DHT22;11429;50.842;4.386;2022-12-16T06:01:56;3.10;99.90
22526;DHT22;11429;50.842;4.386;2022-12-16T06:04:41;3.30;99.90
22526;DHT22;11429;50.842;4.386;2022-12-16T06:07:25;3.40;99.90
22526;DHT22;11429;50.842;4.386;2022-12-16T06:10:09;3.50;99.90
22526;DHT22;11429;50.842;4.386;2022-12-16T06:12:53;3.30;99.90
22526;DHT22;11429;50.842;4.386;2022-12-16T06:15:37;3.20;99.90
22526;DHT22;11429;50.842;4.386;2022-12-16T06:18:21;3.10;99.90
22526;DHT22;11429;50.842;4.386;2022-12-16T06:21:07;3.10;99.90
22526;DHT22;11429;50.842;4.386;2022-12-16T06:23:51;2.90;99.90
22526;DHT22;11429;50.842;4.386;2022-12-16T06:26:37;2.60;99.90
22526;DHT22;11429;50.842;4.386;2022-12-16T06:29:22;2.50;99.90
22526;DHT22;11429;50.842;4.386;2022-12-16T06:32:06;2.50;99.90
22526;DHT22;11429;50.842;4.386;2022-12-16T06:34:50;2.40;99.90
22526;DHT22;11429;50.842;4.386;2022-12-16T06:37:34;2.10;99.90
22526;DHT22;11429;50.842;4.386;2022-12-16T06:40:19;2.10;99.90
22526;DHT22;11429;50.842;4.386;2022-12-16T06:43:04;2.20;99.90
22526;DHT22;11429;50.842;4.386;2022-12-16T06:45:48;2.70;99.90
22526;DHT22;11429;50.842;4.386;2022-12-16T06:48:32;2.90;99.90
22526;DHT22;11429;50.842;4.386;2022-12-16T06:51:16;2.80;99.90
22526;DHT22;11429;50.842;4.386;2022-12-16T06:54:00;2.70;99.90
22526;DHT22;11429;50.842;4.386;2022-12-16T06:56:44;2.40;99.90
22526;DHT22;11429;50.842;4.386;2022-12-16T06:59:28;2.30;99.90
22526;DHT22;11429;50.842;4.386;2022-12-16T07:02:12;2.10;99.90
22526;DHT22;11429;50.842;4.386;2022-12-16T07:04:57;2.20;99.90
22526;DHT22;11429;50.842;4.386;2022-12-16T07:07:50;2.30;99.90
22526;DHT22;11429;50.842;4.386;2022-12-16T07:10:35;2.70;99.90
22526;DHT22;11429;50.842;4.386;2022-12-16T07:13:19;2.70;99.90
22526;DHT22;11429;50.842;4.386;2022-12-16T07:16:03;2.70;99.90
22526;DHT22;11429;50.842;4.386;2022-12-16T07:18:47;2.90;99.90
22526;DHT22;11429;50.842;4.386;2022-12-16T07:21:31;2.90;99.90
22526;DHT22;11429;50.842;4.386;2022-12-16T07:24:15;3.20;99.90
22526;DHT22;11429;50.842;4.386;2022-12-16T07:26:59;3.20;99.90
22526;DHT22;11429;50.842;4.386;2022-12-16T07:29:44;3.10;99.90
22526;DHT22;11429;50.842;4.386;2022-12-16T07:32:29;3.30;99.90
22526;DHT22;11429;50.842;4.386;2022-12-16T07:35:14;3.50;99.90
22526;DHT22;11429;50.842;4.386;2022-12-16T07:37:58;3.40;99.90
22526;DHT22;11429;50.842;4.386;2022-12-16T07:40:47;3.80;99.90
22526;DHT22;11429;50.842;4.386;2022-12-16T07:43:31;3.70;99.90
22526;DHT22;11429;50.842;4.386;2022-12-16T07:46:15;3.60;99.90
22526;DHT22;11429;50.842;4.386;2022-12-16T07:49:00;3.30;99.90
22526;DHT22;11429;50.842;4.386;2022-12-16T07:51:44;3.40;99.90
22526;DHT22;11429;50.842;4.386;2022-12-16T07:54:28;3.40;99.90
22526;DHT22;11429;50.842;4.386;2022-12-16T07:57:12;3.20;99.90
22526;DHT22;11429;50.842;4.386;2022-12-16T07:59:56;3.10;99.90
22526;DHT22;11429;50.842;4.386;2022-12-16T08:02:40;3.30;99.90
22526;DHT22;11429;50.842;4.386;2022-12-16T08:05:24;3.10;99.90
22526;DHT22;11429;50.842;4.386;2022-12-16T08:08:10;3.10;99.90
22526;DHT22;11429;50.842;4.386;2022-12-16T08:10:54;3.20;99.90
22526;DHT22;11429;50.842;4.386;2022-12-16T08:13:39;3.30;99.90
22526;DHT22;11429;50.842;4.386;2022-12-16T08:16:23;3.50;99.90
22526;DHT22;11429;50.842;4.386;2022-12-16T08:19:07;3.40;99.90
22526;DHT22;11429;50.842;4.386;2022-12-16T08:21:52;3.10;99.90
22526;DHT22;11429;50.842;4.386;2022-12-16T08:24:37;2.80;99.90
22526;DHT22;11429;50.842;4.386;2022-12-16T08:27:22;2.60;99.90
22526;DHT22;11429;50.842;4.386;2022-12-16T08:30:06;2.70;99.90
22526;DHT22;11429;50.842;4.386;2022-12-16T08:32:50;2.80;99.90
22526;DHT22;11429;50.842;4.386;2022-12-16T08:35:34;2.70;99.90
22526;DHT22;11429;50.842;4.386;2022-12-16T08:38:18;2.80;99.90
22526;DHT22;11429;50.842;4.386;2022-12-16T08:41:03;3.00;99.90
22526;DHT22;11429;50.842;4.386;2022-12-16T08:43:47;3.20;99.90
22526;DHT22;11429;50.842;4.386;2022-12-16T08:46:31;3.40;99.90
22526;DHT22;11429;50.842;4.386;2022-12-16T08:49:15;3.20;99.90
22526;DHT22;11429;50.842;4.386;2022-12-16T08:51:59;3.20;99.90
22526;DHT22;11429;50.842;4.386;2022-12-16T08:54:44;3.10;99.90
22526;DHT22;11429;50.842;4.386;2022-12-16T08:57:28;3.10;99.90
22526;DHT22;11429;50.842;4.386;2022-12-16T09:00:12;3.20;99.90
22526;DHT22;11429;50.842;4.386;2022-12-16T09:03:00;3.50;99.90
22526;DHT22;11429;50.842;4.386;2022-12-16T09:05:44;3.50;99.90
22526;DHT22;11429;50.842;4.386;2022-12-16T09:08:29;3.40;99.90
22526;DHT22;11429;50.842;4.386;2022-12-16T09:11:13;3.40;99.90
22526;DHT22;11429;50.842;4.386;2022-12-16T09:13:59;3.30;99.90
22526;DHT22;11429;50.842;4.386;2022-12-16T09:16:44;3.20;99.90
22526;DHT22;11429;50.842;4.386;2022-12-16T09:19:28;3.40;99.90
22526;DHT22;11429;50.842;4.386;2022-12-16T09:22:12;3.20;99.90
22526;DHT22;11429;50.842;4.386;2022-12-16T09:24:57;3.20;99.90
22526;DHT22;11429;50.842;4.386;2022-12-16T09:27:41;3.20;99.90
22526;DHT22;11429;50.842;4.386;2022-12-16T09:30:26;2.90;99.90
22526;DHT22;11429;50.842;4.386;2022-12-16T09:33:10;3.10;99.90
22526;DHT22;11429;50.842;4.386;2022-12-16T09:35:54;3.00;99.90
22526;DHT22;11429;50.842;4.386;2022-12-16T09:38:52;3.60;99.90
22526;DHT22;11429;50.842;4.386;2022-12-16T09:44:46;3.40;99.90
22526;DHT22;11429;50.842;4.386;2022-12-16T09:50:29;3.50;99.90
22526;DHT22;11429;50.842;4.386;2022-12-16T09:53:16;3.60;99.90
22526;DHT22;11429;50.842;4.386;2022-12-16T09:56:06;3.60;99.90
22526;DHT22;11429;50.842;4.386;2022-12-16T09:58:59;3.90;99.90
22526;DHT22;11429;50.842;4.386;2022-12-16T10:01:44;3.70;99.90
22526;DHT22;11429;50.842;4.386;2022-12-16T10:04:30;3.60;99.90
22526;DHT22;11429;50.842;4.386;2022-12-16T10:07:18;3.70;99.90
22526;DHT22;11429;50.842;4.386;2022-12-16T10:10:25;3.80;99.90
22526;DHT22;11429;50.842;4.386;2022-12-16T10:16:34;4.10;99.90
22526;DHT22;11429;50.842;4.386;2022-12-16T10:19:37;4.30;99.90
22526;DHT22;11429;50.842;4.386;2022-12-16T10:25:24;4.40;99.90
22526;DHT22;11429;50.842;4.386;2022-12-16T10:28:26;3.90;99.90
22526;DHT22;11429;50.842;4.386;2022-12-16T10:31:15;3.90;99.90
22526;DHT22;11429;50.842;4.386;2022-12-16T10:34:11;4.30;99.90
22526;DHT22;11429;50.842;4.386;2022-12-16T10:36:59;4.20;99.90
22526;DHT22;11429;50.842;4.386;2022-12-16T10:39:49;4.20;99.90
22526;DHT22;11429;50.842;4.386;2022-12-16T10:42:50;4.00;99.90
22526;DHT22;11429;50.842;4.386;2022-12-16T10:45:44;4.20;99.90
22526;DHT22;11429;50.842;4.386;2022-12-16T10:48:31;4.30;99.90
22526;DHT22;11429;50.842;4.386;2022-12-16T10:51:19;4.70;99.90
22526;DHT22;11429;50.842;4.386;2022-12-16T11:00:39;4.90;99.90
22526;DHT22;11429;50.842;4.386;2022-12-16T11:03:28;5.10;99.90
22526;DHT22;11429;50.842;4.386;2022-12-16T11:06:35;5.20;99.90
22526;DHT22;11429;50.842;4.386;2022-12-16T11:09:39;5.50;99.90
22526;DHT22;11429;50.842;4.386;2022-12-16T11:12:28;5.70;99.90
22526;DHT22;11429;50.842;4.386;2022-12-16T11:18:14;6.80;99.90
22526;DHT22;11429;50.842;4.386;2022-12-16T11:21:16;7.70;99.90
22526;DHT22;11429;50.842;4.386;2022-12-16T11:24:15;8.70;99.90
22526;DHT22;11429;50.842;4.386;2022-12-16T11:27:05;9.80;99.90
22526;DHT22;11429;50.842;4.386;2022-12-16T11:29:55;9.60;99.90
22526;DHT22;11429;50.842;4.386;2022-12-16T11:32:51;9.60;99.90
22526;DHT22;11429;50.842;4.386;2022-12-16T11:35:42;10.40;99.90
22526;DHT22;11429;50.842;4.386;2022-12-16T11:41:29;9.20;99.90
22526;DHT22;11429;50.842;4.386;2022-12-16T11:44:45;8.00;99.90
22526;DHT22;11429;50.842;4.386;2022-12-16T11:47:42;8.50;99.90
22526;DHT22;11429;50.842;4.386;2022-12-16T11:50:30;9.50;99.90
22526;DHT22;11429;50.842;4.386;2022-12-16T11:56:19;10.20;99.90
22526;DHT22;11429;50.842;4.386;2022-12-16T11:59:16;9.20;99.90
22526;DHT22;11429;50.842;4.386;2022-12-16T12:02:17;9.20;99.90
22526;DHT22;11429;50.842;4.386;2022-12-16T12:05:04;9.60;99.90
22526;DHT22;11429;50.842;4.386;2022-12-16T12:08:02;10.50;99.90
22526;DHT22;11429;50.842;4.386;2022-12-16T12:11:07;10.60;99.90
22526;DHT22;11429;50.842;4.386;2022-12-16T12:14:08;11.10;99.90
22526;DHT22;11429;50.842;4.386;2022-12-16T12:17:14;11.00;99.90
22526;DHT22;11429;50.842;4.386;2022-12-16T12:20:52;10.60;99.90
22526;DHT22;11429;50.842;4.386;2022-12-16T12:23:31;11.00;99.90
22526;DHT22;11429;50.842;4.386;2022-12-16T12:26:24;10.40;99.90
22526;DHT22;11429;50.842;4.386;2022-12-16T12:38:45;7.60;99.90
22526;DHT22;11429;50.842;4.386;2022-12-16T12:41:53;8.20;99.90
22526;DHT22;11429;50.842;4.386;2022-12-16T12:47:41;8.30;99.90
22526;DHT22;11429;50.842;4.386;2022-12-16T12:50:41;7.40;99.90
22526;DHT22;11429;50.842;4.386;2022-12-16T12:59:23;6.00;99.90
22526;DHT22;11429;50.842;4.386;2022-12-16T13:02:17;4.80;99.90
22526;DHT22;11429;50.842;4.386;2022-12-16T13:05:04;4.80;99.90
22526;DHT22;11429;50.842;4.386;2022-12-16T13:07:49;5.00;99.90
22526;DHT22;11429;50.842;4.386;2022-12-16T13:10:35;4.90;99.90
22526;DHT22;11429;50.842;4.386;2022-12-16T13:13:34;4.90;99.90
22526;DHT22;11429;50.842;4.386;2022-12-16T13:22:33;4.90;99.90
22526;DHT22;11429;50.842;4.386;2022-12-16T13:25:43;4.50;99.90
22526;DHT22;11429;50.842;4.386;2022-12-16T13:28:38;4.30;99.90
22526;DHT22;11429;50.842;4.386;2022-12-16T13:31:23;4.30;99.90
22526;DHT22;11429;50.842;4.386;2022-12-16T13:37:01;5.00;99.90
22526;DHT22;11429;50.842;4.386;2022-12-16T13:40:25;4.70;99.90
22526;DHT22;11429;50.842;4.386;2022-12-16T13:43:51;4.70;99.90
22526;DHT22;11429;50.842;4.386;2022-12-16T13:46:50;4.70;99.90
22526;DHT22;11429;50.842;4.386;2022-12-16T13:55:17;4.00;99.90
22526;DHT22;11429;50.842;4.386;2022-12-16T13:58:08;4.00;99.90
22526;DHT22;11429;50.842;4.386;2022-12-16T14:01:04;3.90;99.90
22526;DHT22;11429;50.842;4.386;2022-12-16T14:03:50;3.60;99.90
22526;DHT22;11429;50.842;4.386;2022-12-16T14:06:37;3.60;99.90
22526;DHT22;11429;50.842;4.386;2022-12-16T14:09:35;3.70;99.90
22526;DHT22;11429;50.842;4.386;2022-12-16T14:12:24;3.60;99.90
22526;DHT22;11429;50.842;4.386;2022-12-16T14:15:25;3.60;99.90
22526;DHT22;11429;50.842;4.386;2022-12-16T14:22:01;3.90;99.90
22526;DHT22;11429;50.842;4.386;2022-12-16T14:24:38;3.80;99.90
22526;DHT22;11429;50.842;4.386;2022-12-16T14:27:22;3.70;99.90
22526;DHT22;11429;50.842;4.386;2022-12-16T14:30:18;3.70;99.90
22526;DHT22;11429;50.842;4.386;2022-12-16T14:36:22;3.80;99.90
22526;DHT22;11429;50.842;4.386;2022-12-16T14:39:20;3.70;99.90
22526;DHT22;11429;50.842;4.386;2022-12-16T14:48:20;3.40;99.90
22526;DHT22;11429;50.842;4.386;2022-12-16T14:51:28;3.50;99.90
22526;DHT22;11429;50.842;4.386;2022-12-16T14:54:37;3.40;99.90
22526;DHT22;11429;50.842;4.386;2022-12-16T14:57:27;3.30;99.90
22526;DHT22;11429;50.842;4.386;2022-12-16T15:00:16;3.10;99.90
22526;DHT22;11429;50.842;4.386;2022-12-16T15:06:20;2.90;99.90
22526;DHT22;11429;50.842;4.386;2022-12-16T15:09:17;2.80;99.90
22526;DHT22;11429;50.842;4.386;2022-12-16T15:12:08;2.80;99.90
22526;DHT22;11429;50.842;4.386;2022-12-16T15:14:54;2.80;99.90
22526;DHT22;11429;50.842;4.386;2022-12-16T15:17:51;2.90;99.90
22526;DHT22;11429;50.842;4.386;2022-12-16T15:20:47;3.00;99.90
22526;DHT22;11429;50.842;4.386;2022-12-16T15:23:33;3.00;99.90
22526;DHT22;11429;50.842;4.386;2022-12-16T15:26:20;2.90;99.90
22526;DHT22;11429;50.842;4.386;2022-12-16T15:29:22;2.90;99.90
22526;DHT22;11429;50.842;4.386;2022-12-16T15:35:10;2.80;99.90
22526;DHT22;11429;50.842;4.386;2022-12-16T15:37:54;2.60;99.90
22526;DHT22;11429;50.842;4.386;2022-12-16T15:40:49;2.50;99.90
22526;DHT22;11429;50.842;4.386;2022-12-16T15:43:38;2.50;99.90
22526;DHT22;11429;50.842;4.386;2022-12-16T15:46:25;2.40;99.90
22526;DHT22;11429;50.842;4.386;2022-12-16T15:49:33;2.20;99.90
22526;DHT22;11429;50.842;4.386;2022-12-16T15:52:35;2.10;99.90
22526;DHT22;11429;50.842;4.386;2022-12-16T15:55:38;2.20;99.90
22526;DHT22;11429;50.842;4.386;2022-12-16T15:58:31;2.10;99.90
22526;DHT22;11429;50.842;4.386;2022-12-16T16:01:19;2.10;99.90
22526;DHT22;11429;50.842;4.386;2022-12-16T16:04:16;2.10;99.90
22526;DHT22;11429;50.842;4.386;2022-12-16T16:07:02;2.10;99.90
22526;DHT22;11429;50.842;4.386;2022-12-16T16:09:46;2.00;99.90
22526;DHT22;11429;50.842;4.386;2022-12-16T16:12:31;2.10;99.90
22526;DHT22;11429;50.842;4.386;2022-12-16T16:15:16;2.00;99.90
22526;DHT22;11429;50.842;4.386;2022-12-16T16:18:04;2.00;99.90
22526;DHT22;11429;50.842;4.386;2022-12-16T16:20:49;1.80;99.90
22526;DHT22;11429;50.842;4.386;2022-12-16T16:23:34;1.80;99.90
22526;DHT22;11429;50.842;4.386;2022-12-16T16:26:20;1.80;99.90
22526;DHT22;11429;50.842;4.386;2022-12-16T16:29:06;1.80;99.90
22526;DHT22;11429;50.842;4.386;2022-12-16T16:31:52;1.90;99.90
22526;DHT22;11429;50.842;4.386;2022-12-16T16:34:37;1.70;99.90
22526;DHT22;11429;50.842;4.386;2022-12-16T16:37:23;1.70;99.90
22526;DHT22;11429;50.842;4.386;2022-12-16T16:40:33;1.80;99.90
22526;DHT22;11429;50.842;4.386;2022-12-16T16:43:18;1.80;99.90
22526;DHT22;11429;50.842;4.386;2022-12-16T16:46:49;1.80;99.90
22526;DHT22;11429;50.842;4.386;2022-12-16T16:49:32;1.80;99.90
22526;DHT22;11429;50.842;4.386;2022-12-16T16:52:22;1.80;99.90
22526;DHT22;11429;50.842;4.386;2022-12-16T16:55:15;1.90;99.90
22526;DHT22;11429;50.842;4.386;2022-12-16T16:58:26;1.90;99.90
22526;DHT22;11429;50.842;4.386;2022-12-16T17:01:12;1.80;99.90
22526;DHT22;11429;50.842;4.386;2022-12-16T17:03:57;1.80;99.90
22526;DHT22;11429;50.842;4.386;2022-12-16T17:06:41;1.80;99.90
22526;DHT22;11429;50.842;4.386;2022-12-16T17:09:25;1.60;99.90
22526;DHT22;11429;50.842;4.386;2022-12-16T17:12:23;1.60;99.90
22526;DHT22;11429;50.842;4.386;2022-12-16T17:15:24;1.70;99.90
22526;DHT22;11429;50.842;4.386;2022-12-16T17:18:09;1.70;99.90
22526;DHT22;11429;50.842;4.386;2022-12-16T17:20:53;1.50;99.90
22526;DHT22;11429;50.842;4.386;2022-12-16T17:23:38;1.50;99.90
22526;DHT22;11429;50.842;4.386;2022-12-16T17:26:23;1.40;99.90
22526;DHT22;11429;50.842;4.386;2022-12-16T17:29:16;1.40;99.90
22526;DHT22;11429;50.842;4.386;2022-12-16T17:32:01;1.50;99.90
22526;DHT22;11429;50.842;4.386;2022-12-16T17:34:45;1.60;99.90
22526;DHT22;11429;50.842;4.386;2022-12-16T17:37:29;1.70;99.90
22526;DHT22;11429;50.842;4.386;2022-12-16T17:40:13;1.70;99.90
22526;DHT22;11429;50.842;4.386;2022-12-16T17:42:58;1.70;99.90
22526;DHT22;11429;50.842;4.386;2022-12-16T17:45:42;1.80;99.90
22526;DHT22;11429;50.842;4.386;2022-12-16T17:48:26;1.70;99.90
22526;DHT22;11429;50.842;4.386;2022-12-16T17:51:10;1.70;99.90
22526;DHT22;11429;50.842;4.386;2022-12-16T17:53:54;1.70;99.90
22526;DHT22;11429;50.842;4.386;2022-12-16T17:56:40;1.50;99.90
22526;DHT22;11429;50.842;4.386;2022-12-16T17:59:24;1.40;99.90
22526;DHT22;11429;50.842;4.386;2022-12-16T18:02:10;1.40;99.90
22526;DHT22;11429;50.842;4.386;2022-12-16T18:04:55;1.30;99.90
22526;DHT22;11429;50.842;4.386;2022-12-16T18:07:39;1.40;99.90
22526;DHT22;11429;50.842;4.386;2022-12-16T18:10:23;1.50;99.90
22526;DHT22;11429;50.842;4.386;2022-12-16T18:13:08;1.50;99.90
22526;DHT22;11429;50.842;4.386;2022-12-16T18:16:03;1.50;99.90
22526;DHT22;11429;50.842;4.386;2022-12-16T18:18:49;1.50;99.90
22526;DHT22;11429;50.842;4.386;2022-12-16T18:21:33;1.50;99.90
22526;DHT22;11429;50.842;4.386;2022-12-16T18:24:17;1.40;99.90
22526;DHT22;11429;50.842;4.386;2022-12-16T18:27:03;1.40;99.90
22526;DHT22;11429;50.842;4.386;2022-12-16T18:29:48;1.30;99.90
22526;DHT22;11429;50.842;4.386;2022-12-16T18:32:32;1.30;99.90
22526;DHT22;11429;50.842;4.386;2022-12-16T18:35:16;1.20;99.90
22526;DHT22;11429;50.842;4.386;2022-12-16T18:38:01;1.10;99.90
22526;DHT22;11429;50.842;4.386;2022-12-16T18:40:46;1.20;99.90
22526;DHT22;11429;50.842;4.386;2022-12-16T18:43:30;1.00;99.90
22526;DHT22;11429;50.842;4.386;2022-12-16T18:46:14;0.90;99.90
22526;DHT22;11429;50.842;4.386;2022-12-16T18:49:00;0.90;99.90
22526;DHT22;11429;50.842;4.386;2022-12-16T18:51:45;1.00;99.90
22526;DHT22;11429;50.842;4.386;2022-12-16T18:54:29;1.00;99.90
22526;DHT22;11429;50.842;4.386;2022-12-16T18:57:13;0.90;99.90
22526;DHT22;11429;50.842;4.386;2022-12-16T19:00:00;1.00;99.90
22526;DHT22;11429;50.842;4.386;2022-12-16T19:02:44;1.00;99.90
22526;DHT22;11429;50.842;4.386;2022-12-16T19:05:29;0.90;99.90
22526;DHT22;11429;50.842;4.386;2022-12-16T19:08:17;1.00;99.90
22526;DHT22;11429;50.842;4.386;2022-12-16T19:11:01;1.00;99.90
22526;DHT22;11429;50.842;4.386;2022-12-16T19:13:48;1.00;99.90
22526;DHT22;11429;50.842;4.386;2022-12-16T19:16:32;0.90;99.90
22526;DHT22;11429;50.842;4.386;2022-12-16T19:19:18;1.00;99.90
22526;DHT22;11429;50.842;4.386;2022-12-16T19:22:03;1.00;99.90
22526;DHT22;11429;50.842;4.386;2022-12-16T19:24:47;0.80;99.90
22526;DHT22;11429;50.842;4.386;2022-12-16T19:27:31;0.80;99.90